createdAt,value
2018-09-04T00:00:00.130Z,9.45
2018-09-04T00:00:12.584Z,9.45
2018-09-04T00:00:25.012Z,7.4
2018-09-04T00:00:37.556Z,7.4
2018-09-04T00:00:49.966Z,7.4
2018-09-04T00:01:02.415Z,7.4
2018-09-04T00:01:14.842Z,7.4
2018-09-04T00:01:27.297Z,7.4
2018-09-04T00:01:39.719Z,7.4
2018-09-04T00:01:52.125Z,7.4
2018-09-04T00:02:04.568Z,7.4
2018-09-04T00:02:17.022Z,7.4
2018-09-04T00:02:29.446Z,7.4
2018-09-04T00:02:41.928Z,7.4
2018-09-04T00:02:54.477Z,7.4
2018-09-04T00:03:07.024Z,7.4
2018-09-04T00:03:19.434Z,7.4
2018-09-04T00:03:31.846Z,7.4
2018-09-04T00:03:44.260Z,7.4
2018-09-04T00:03:56.680Z,7.4
2018-09-04T00:04:09.130Z,7.4
2018-09-04T00:04:21.544Z,7.4
2018-09-04T00:04:33.963Z,7.4
2018-09-04T00:04:46.538Z,7.4
2018-09-04T00:04:58.953Z,7.4
2018-09-04T00:05:11.399Z,7.4
2018-09-04T00:05:23.845Z,7.4
2018-09-04T00:05:36.284Z,7.4
2018-09-04T00:05:48.724Z,7.4
2018-09-04T00:06:01.146Z,7.4
2018-09-04T00:06:13.556Z,7.4
2018-09-04T00:06:25.981Z,7.4
2018-09-04T00:06:38.396Z,7.4
2018-09-04T00:06:50.795Z,7.4
2018-09-04T00:07:03.189Z,7.4
2018-09-04T00:07:15.608Z,7.4
2018-09-04T00:07:28.062Z,7.4
2018-09-04T00:07:40.450Z,7.4
2018-09-04T00:07:52.842Z,7.4
2018-09-04T00:08:05.247Z,7.4
2018-09-04T00:08:17.644Z,7.4
2018-09-04T00:08:30.047Z,7.4
2018-09-04T00:08:42.454Z,7.4
2018-09-04T00:08:54.852Z,7.4
2018-09-04T00:09:07.256Z,7.4
2018-09-04T00:09:19.663Z,7.4
2018-09-04T00:09:32.061Z,7.4
2018-09-04T00:09:44.485Z,7.4
2018-09-04T00:09:56.905Z,7.4
2018-09-04T00:10:09.323Z,7.4
2018-09-04T00:10:21.723Z,7.33
2018-09-04T00:10:34.135Z,7.33
2018-09-04T00:10:46.539Z,7.33
2018-09-04T00:10:58.952Z,7.33
2018-09-04T00:11:11.364Z,7.33
2018-09-04T00:11:23.840Z,7.33
2018-09-04T00:11:36.342Z,7.33
2018-09-04T00:11:48.848Z,7.33
2018-09-04T00:12:01.402Z,7.33
2018-09-04T00:12:13.791Z,7.33
2018-09-04T00:12:26.197Z,7.33
2018-09-04T00:12:38.608Z,7.33
2018-09-04T00:12:51.281Z,7.33
2018-09-04T00:13:03.703Z,7.33
2018-09-04T00:13:16.119Z,7.33
2018-09-04T00:13:28.535Z,7.33
2018-09-04T00:13:40.984Z,7.33
2018-09-04T00:13:53.538Z,7.33
2018-09-04T00:14:05.981Z,7.33
2018-09-04T00:14:18.425Z,7.33
2018-09-04T00:14:30.852Z,7.33
2018-09-04T00:14:43.280Z,7.33
2018-09-04T00:14:55.673Z,7.33
2018-09-04T00:15:08.097Z,7.33
2018-09-04T00:15:20.506Z,7.33
2018-09-04T00:15:32.896Z,7.33
2018-09-04T00:15:45.295Z,7.33
2018-09-04T00:15:57.703Z,7.33
2018-09-04T00:16:10.104Z,7.33
2018-09-04T00:16:22.498Z,7.33
2018-09-04T00:16:34.875Z,7.33
2018-09-04T00:16:47.278Z,7.33
2018-09-04T00:16:59.682Z,7.33
2018-09-04T00:17:12.088Z,7.33
2018-09-04T00:17:24.512Z,7.33
2018-09-04T00:17:36.907Z,7.33
2018-09-04T00:17:49.347Z,7.33
2018-09-04T00:18:01.757Z,7.33
2018-09-04T00:18:14.170Z,7.33
2018-09-04T00:18:26.583Z,7.33
2018-09-04T00:18:39.020Z,7.33
2018-09-04T00:18:51.437Z,7.33
2018-09-04T00:19:03.845Z,7.33
2018-09-04T00:19:16.265Z,7.33
2018-09-04T00:19:28.667Z,7.33
2018-09-04T00:19:41.060Z,7.33
2018-09-04T00:19:53.786Z,7.33
2018-09-04T00:20:06.236Z,7.33
2018-09-04T00:20:18.668Z,7.33
2018-09-04T00:20:31.081Z,6.96
2018-09-04T00:20:43.566Z,6.96
2018-09-04T00:20:55.970Z,6.96
2018-09-04T00:21:08.519Z,6.96
2018-09-04T00:21:20.941Z,6.96
2018-09-04T00:21:33.368Z,6.96
2018-09-04T00:21:45.954Z,6.96
2018-09-04T00:21:58.375Z,6.96
2018-09-04T00:22:10.796Z,6.96
2018-09-04T00:22:23.201Z,6.96
2018-09-04T00:22:35.609Z,6.96
2018-09-04T00:22:48.069Z,6.96
2018-09-04T00:23:00.549Z,6.96
2018-09-04T00:23:12.947Z,6.96
2018-09-04T00:23:25.343Z,6.96
2018-09-04T00:23:37.826Z,6.96
2018-09-04T00:23:50.232Z,6.96
2018-09-04T00:24:02.627Z,6.96
2018-09-04T00:24:15.088Z,6.96
2018-09-04T00:24:27.526Z,6.96
2018-09-04T00:24:39.920Z,6.96
2018-09-04T00:24:52.507Z,6.96
2018-09-04T00:25:04.910Z,6.96
2018-09-04T00:25:17.322Z,6.96
2018-09-04T00:25:29.735Z,6.96
2018-09-04T00:25:42.179Z,6.96
2018-09-04T00:25:54.577Z,6.96
2018-09-04T00:26:06.985Z,6.96
2018-09-04T00:26:19.437Z,6.96
2018-09-04T00:26:31.858Z,6.96
2018-09-04T00:26:44.253Z,6.96
2018-09-04T00:26:56.678Z,6.96
2018-09-04T00:27:09.078Z,6.96
2018-09-04T00:27:21.503Z,6.96
2018-09-04T00:27:33.910Z,6.96
2018-09-04T00:27:46.321Z,6.96
2018-09-04T00:27:58.719Z,6.96
2018-09-04T00:28:11.146Z,6.96
2018-09-04T00:28:23.533Z,6.96
2018-09-04T00:28:36.092Z,6.96
2018-09-04T00:28:48.495Z,6.96
2018-09-04T00:29:00.895Z,6.96
2018-09-04T00:29:13.304Z,6.96
2018-09-04T00:29:25.707Z,6.96
2018-09-04T00:29:38.115Z,6.96
2018-09-04T00:29:50.519Z,6.96
2018-09-04T00:30:02.928Z,6.96
2018-09-04T00:30:15.354Z,6.96
2018-09-04T00:30:27.740Z,7.85
2018-09-04T00:30:40.312Z,7.85
2018-09-04T00:30:52.738Z,7.85
2018-09-04T00:31:05.158Z,7.85
2018-09-04T00:31:17.725Z,7.85
2018-09-04T00:31:30.126Z,7.85
2018-09-04T00:31:42.552Z,7.85
2018-09-04T00:31:54.940Z,7.85
2018-09-04T00:32:07.342Z,7.85
2018-09-04T00:32:19.746Z,7.85
2018-09-04T00:32:32.143Z,7.85
2018-09-04T00:32:44.553Z,7.85
2018-09-04T00:32:56.971Z,7.85
2018-09-04T00:33:09.371Z,7.85
2018-09-04T00:33:21.781Z,7.85
2018-09-04T00:33:34.174Z,7.85
2018-09-04T00:33:46.605Z,7.85
2018-09-04T00:33:59.025Z,7.85
2018-09-04T00:34:11.483Z,7.85
2018-09-04T00:34:24.473Z,7.85
2018-09-04T00:34:38.417Z,7.85
2018-09-04T00:34:50.875Z,7.85
2018-09-04T00:35:03.333Z,7.85
2018-09-04T00:35:15.824Z,7.85
2018-09-04T00:35:28.241Z,7.85
2018-09-04T00:35:40.696Z,7.85
2018-09-04T00:35:53.113Z,7.85
2018-09-04T00:36:05.531Z,7.85
2018-09-04T00:36:17.982Z,7.85
2018-09-04T00:36:30.386Z,7.85
2018-09-04T00:36:42.785Z,7.85
2018-09-04T00:36:55.195Z,7.85
2018-09-04T00:37:07.603Z,7.85
2018-09-04T00:37:19.988Z,7.85
2018-09-04T00:37:32.379Z,7.85
2018-09-04T00:37:44.792Z,7.85
2018-09-04T00:37:57.247Z,7.85
2018-09-04T00:38:09.655Z,7.85
2018-09-04T00:38:22.064Z,7.85
2018-09-04T00:38:34.464Z,7.85
2018-09-04T00:38:46.875Z,7.85
2018-09-04T00:38:59.271Z,7.85
2018-09-04T00:39:11.674Z,7.85
2018-09-04T00:39:24.088Z,7.85
2018-09-04T00:39:36.483Z,7.85
2018-09-04T00:39:48.886Z,7.85
2018-09-04T00:40:01.276Z,7.85
2018-09-04T00:40:13.666Z,7.85
2018-09-04T00:40:26.103Z,7.65
2018-09-04T00:40:38.488Z,7.65
2018-09-04T00:40:50.893Z,7.65
2018-09-04T00:41:03.311Z,7.65
2018-09-04T00:41:15.751Z,7.65
2018-09-04T00:41:28.174Z,7.65
2018-09-04T00:41:40.588Z,7.65
2018-09-04T00:41:53.006Z,7.65
2018-09-04T00:42:05.429Z,7.65
2018-09-04T00:42:17.843Z,7.65
2018-09-04T00:42:30.245Z,7.65
2018-09-04T00:42:42.668Z,7.65
2018-09-04T00:42:55.080Z,7.65
2018-09-04T00:43:07.471Z,7.65
2018-09-04T00:43:19.872Z,7.65
2018-09-04T00:43:32.299Z,7.65
2018-09-04T00:43:44.705Z,7.65
2018-09-04T00:43:57.115Z,7.65
2018-09-04T00:44:09.514Z,7.65
2018-09-04T00:44:21.917Z,7.65
2018-09-04T00:44:34.323Z,7.65
2018-09-04T00:44:46.725Z,7.65
2018-09-04T00:44:59.179Z,7.65
2018-09-04T00:45:11.606Z,7.65
2018-09-04T00:45:24.029Z,7.65
2018-09-04T00:45:36.443Z,7.65
2018-09-04T00:45:48.850Z,7.65
2018-09-04T00:46:01.290Z,7.65
2018-09-04T00:46:13.710Z,7.65
2018-09-04T00:46:26.168Z,7.65
2018-09-04T00:46:38.723Z,7.65
2018-09-04T00:46:51.142Z,7.65
2018-09-04T00:47:03.556Z,7.65
2018-09-04T00:47:15.948Z,7.65
2018-09-04T00:47:28.410Z,7.65
2018-09-04T00:47:40.817Z,7.65
2018-09-04T00:47:53.216Z,7.65
2018-09-04T00:48:05.701Z,7.65
2018-09-04T00:48:18.118Z,7.65
2018-09-04T00:48:30.539Z,7.65
2018-09-04T00:48:42.938Z,7.65
2018-09-04T00:48:55.409Z,7.65
2018-09-04T00:49:07.999Z,7.65
2018-09-04T00:49:20.585Z,7.65
2018-09-04T00:49:33.012Z,7.65
2018-09-04T00:49:45.409Z,7.65
2018-09-04T00:49:57.795Z,7.65
2018-09-04T00:50:10.202Z,7.65
2018-09-04T00:50:22.592Z,7.65
2018-09-04T00:50:34.992Z,6.3
2018-09-04T00:50:47.384Z,6.3
2018-09-04T00:50:59.785Z,6.3
2018-09-04T00:51:12.185Z,6.3
2018-09-04T00:51:24.597Z,6.3
2018-09-04T00:51:37.005Z,6.3
2018-09-04T00:51:49.413Z,6.3
2018-09-04T00:52:01.847Z,6.3
2018-09-04T00:52:14.274Z,6.3
2018-09-04T00:52:26.688Z,6.3
2018-09-04T00:52:39.149Z,6.3
2018-09-04T00:52:51.551Z,6.3
2018-09-04T00:53:03.949Z,6.3
2018-09-04T00:53:16.407Z,6.3
2018-09-04T00:53:28.797Z,6.3
2018-09-04T00:53:41.231Z,6.3
2018-09-04T00:53:53.647Z,6.3
2018-09-04T00:54:06.068Z,6.3
2018-09-04T00:54:18.508Z,6.3
2018-09-04T00:54:30.916Z,6.3
2018-09-04T00:54:43.317Z,6.3
2018-09-04T00:54:55.708Z,6.3
2018-09-04T00:55:08.294Z,6.3
2018-09-04T00:55:20.691Z,6.3
2018-09-04T00:55:33.086Z,6.3
2018-09-04T00:55:45.489Z,6.3
2018-09-04T00:55:57.900Z,6.3
2018-09-04T00:56:10.312Z,6.3
2018-09-04T00:56:22.715Z,6.3
2018-09-04T00:56:35.110Z,6.3
2018-09-04T00:56:47.496Z,6.3
2018-09-04T00:56:59.886Z,6.3
2018-09-04T00:57:12.302Z,6.3
2018-09-04T00:57:24.703Z,6.3
2018-09-04T00:57:37.122Z,6.3
2018-09-04T00:57:49.516Z,6.3
2018-09-04T00:58:01.922Z,6.3
2018-09-04T00:58:14.342Z,6.3
2018-09-04T00:58:26.749Z,6.3
2018-09-04T00:58:39.147Z,6.3
2018-09-04T00:58:51.732Z,6.3
2018-09-04T00:59:05.074Z,6.3
2018-09-04T00:59:18.057Z,6.3
2018-09-04T00:59:30.458Z,6.3
2018-09-04T00:59:42.853Z,6.3
2018-09-04T00:59:55.251Z,6.3
2018-09-04T01:00:07.703Z,6.3
2018-09-04T01:00:20.143Z,6.3
2018-09-04T01:00:32.631Z,6.77
2018-09-04T01:00:45.061Z,6.77
2018-09-04T01:00:57.489Z,6.77
2018-09-04T01:01:09.905Z,6.77
2018-09-04T01:01:22.324Z,6.77
2018-09-04T01:01:34.759Z,6.77
2018-09-04T01:01:47.181Z,6.77
2018-09-04T01:01:59.592Z,6.77
2018-09-04T01:02:12.007Z,6.77
2018-09-04T01:02:24.395Z,6.77
2018-09-04T01:02:36.793Z,6.77
2018-09-04T01:02:49.211Z,6.77
2018-09-04T01:03:01.780Z,6.77
2018-09-04T01:03:14.179Z,6.77
2018-09-04T01:03:26.586Z,6.77
2018-09-04T01:03:39.093Z,6.77
2018-09-04T01:03:51.503Z,6.77
2018-09-04T01:04:03.921Z,6.77
2018-09-04T01:04:16.332Z,6.77
2018-09-04T01:04:28.916Z,6.77
2018-09-04T01:04:41.332Z,6.77
2018-09-04T01:04:53.831Z,6.77
2018-09-04T01:05:06.262Z,6.77
2018-09-04T01:05:18.657Z,6.77
2018-09-04T01:05:31.098Z,6.77
2018-09-04T01:05:43.512Z,6.77
2018-09-04T01:05:55.964Z,6.77
2018-09-04T01:06:08.375Z,6.77
2018-09-04T01:06:20.778Z,6.77
2018-09-04T01:06:33.222Z,6.77
2018-09-04T01:06:45.649Z,6.77
2018-09-04T01:06:58.045Z,6.77
2018-09-04T01:07:10.442Z,6.77
2018-09-04T01:07:22.837Z,6.77
2018-09-04T01:07:35.400Z,6.77
2018-09-04T01:07:47.820Z,6.77
2018-09-04T01:08:00.251Z,6.77
2018-09-04T01:08:12.647Z,6.77
2018-09-04T01:08:25.055Z,6.77
2018-09-04T01:08:37.441Z,6.77
2018-09-04T01:08:49.842Z,6.77
2018-09-04T01:09:02.245Z,6.77
2018-09-04T01:09:14.659Z,6.77
2018-09-04T01:09:27.089Z,6.77
2018-09-04T01:09:39.491Z,6.77
2018-09-04T01:09:51.902Z,6.77
2018-09-04T01:10:04.317Z,6.77
2018-09-04T01:10:16.722Z,6.77
2018-09-04T01:10:29.140Z,5.92
2018-09-04T01:10:41.551Z,5.92
2018-09-04T01:10:53.987Z,5.92
2018-09-04T01:11:06.407Z,5.92
2018-09-04T01:11:18.812Z,5.92
2018-09-04T01:11:31.268Z,5.92
2018-09-04T01:11:44.161Z,5.92
2018-09-04T01:11:56.571Z,5.92
2018-09-04T01:12:09.172Z,5.92
2018-09-04T01:12:21.579Z,5.92
2018-09-04T01:12:33.969Z,5.92
2018-09-04T01:12:46.357Z,5.92
2018-09-04T01:12:58.793Z,5.92
2018-09-04T01:13:11.177Z,5.92
2018-09-04T01:13:23.608Z,5.92
2018-09-04T01:13:36.018Z,5.92
2018-09-04T01:13:48.571Z,5.92
2018-09-04T01:14:01.037Z,5.92
2018-09-04T01:14:13.498Z,5.92
2018-09-04T01:14:25.917Z,5.92
2018-09-04T01:14:38.338Z,5.92
2018-09-04T01:14:50.754Z,5.92
2018-09-04T01:15:03.168Z,5.92
2018-09-04T01:15:15.568Z,5.92
2018-09-04T01:15:27.970Z,5.92
2018-09-04T01:15:40.425Z,5.92
2018-09-04T01:15:52.861Z,5.92
2018-09-04T01:16:05.260Z,5.92
2018-09-04T01:16:17.659Z,5.92
2018-09-04T01:16:30.057Z,5.92
2018-09-04T01:16:42.470Z,5.92
2018-09-04T01:16:54.970Z,5.92
2018-09-04T01:17:07.377Z,5.92
2018-09-04T01:17:19.766Z,5.92
2018-09-04T01:17:32.174Z,5.92
2018-09-04T01:17:44.583Z,5.92
2018-09-04T01:17:56.979Z,5.92
2018-09-04T01:18:09.383Z,5.92
2018-09-04T01:18:21.780Z,5.92
2018-09-04T01:18:34.182Z,5.92
2018-09-04T01:18:46.612Z,5.92
2018-09-04T01:18:59.001Z,5.92
2018-09-04T01:19:11.409Z,5.92
2018-09-04T01:19:23.838Z,5.92
2018-09-04T01:19:36.350Z,5.92
2018-09-04T01:19:48.781Z,5.92
2018-09-04T01:20:01.272Z,5.92
2018-09-04T01:20:13.686Z,5.92
2018-09-04T01:20:26.098Z,6.32
2018-09-04T01:20:38.601Z,6.32
2018-09-04T01:20:51.016Z,6.32
2018-09-04T01:21:03.407Z,6.32
2018-09-04T01:21:15.883Z,6.32
2018-09-04T01:21:28.280Z,6.32
2018-09-04T01:21:40.694Z,6.32
2018-09-04T01:21:53.210Z,6.32
2018-09-04T01:22:05.599Z,6.32
2018-09-04T01:22:18.027Z,6.32
2018-09-04T01:22:30.431Z,6.32
2018-09-04T01:22:42.850Z,6.32
2018-09-04T01:22:55.410Z,6.32
2018-09-04T01:23:07.808Z,6.32
2018-09-04T01:23:20.222Z,6.32
2018-09-04T01:23:32.635Z,6.32
2018-09-04T01:23:45.212Z,6.32
2018-09-04T01:23:57.625Z,6.32
2018-09-04T01:24:10.005Z,6.32
2018-09-04T01:24:22.417Z,6.32
2018-09-04T01:24:34.839Z,6.32
2018-09-04T01:24:47.456Z,6.32
2018-09-04T01:25:00.011Z,6.32
2018-09-04T01:25:12.416Z,6.32
2018-09-04T01:25:24.831Z,6.32
2018-09-04T01:25:37.225Z,6.32
2018-09-04T01:25:49.626Z,6.32
2018-09-04T01:26:02.012Z,6.32
2018-09-04T01:26:14.415Z,6.32
2018-09-04T01:26:26.814Z,6.32
2018-09-04T01:26:39.234Z,6.32
2018-09-04T01:26:51.655Z,6.32
2018-09-04T01:27:04.075Z,6.32
2018-09-04T01:27:16.474Z,6.32
2018-09-04T01:27:28.904Z,6.32
2018-09-04T01:27:41.302Z,6.32
2018-09-04T01:27:53.709Z,6.32
2018-09-04T01:28:06.109Z,6.32
2018-09-04T01:28:18.591Z,6.32
2018-09-04T01:28:31.005Z,6.32
2018-09-04T01:28:43.400Z,6.32
2018-09-04T01:28:55.824Z,6.32
2018-09-04T01:29:08.239Z,6.32
2018-09-04T01:29:20.674Z,6.32
2018-09-04T01:29:33.093Z,6.32
2018-09-04T01:29:45.499Z,6.32
2018-09-04T01:29:57.991Z,6.32
2018-09-04T01:30:10.398Z,6.32
2018-09-04T01:30:22.812Z,6.32
2018-09-04T01:30:35.254Z,6.6
2018-09-04T01:30:47.662Z,6.6
2018-09-04T01:31:00.114Z,6.6
2018-09-04T01:31:12.518Z,6.6
2018-09-04T01:31:25.085Z,6.6
2018-09-04T01:31:37.492Z,6.6
2018-09-04T01:31:49.907Z,6.6
2018-09-04T01:32:02.310Z,6.6
2018-09-04T01:32:14.772Z,6.6
2018-09-04T01:32:27.188Z,6.6
2018-09-04T01:32:39.614Z,6.6
2018-09-04T01:32:52.032Z,6.6
2018-09-04T01:33:04.451Z,6.6
2018-09-04T01:33:16.862Z,6.6
2018-09-04T01:33:29.278Z,6.6
2018-09-04T01:33:41.730Z,6.6
2018-09-04T01:33:54.141Z,6.6
2018-09-04T01:34:06.562Z,6.6
2018-09-04T01:34:18.978Z,6.6
2018-09-04T01:34:31.417Z,6.6
2018-09-04T01:34:43.835Z,6.6
2018-09-04T01:34:56.257Z,6.6
2018-09-04T01:35:08.671Z,6.6
2018-09-04T01:35:21.077Z,6.6
2018-09-04T01:35:33.480Z,6.6
2018-09-04T01:35:45.875Z,6.6
2018-09-04T01:35:58.286Z,6.6
2018-09-04T01:36:10.695Z,6.6
2018-09-04T01:36:23.183Z,6.6
2018-09-04T01:36:35.587Z,6.6
2018-09-04T01:36:48.009Z,6.6
2018-09-04T01:37:00.417Z,6.6
2018-09-04T01:37:12.867Z,6.6
2018-09-04T01:37:25.278Z,6.6
2018-09-04T01:37:37.693Z,6.6
2018-09-04T01:37:50.150Z,6.6
2018-09-04T01:38:02.565Z,6.6
2018-09-04T01:38:14.974Z,6.6
2018-09-04T01:38:27.382Z,6.6
2018-09-04T01:38:39.805Z,6.6
2018-09-04T01:38:52.248Z,6.6
2018-09-04T01:39:04.870Z,6.6
2018-09-04T01:39:17.267Z,6.6
2018-09-04T01:39:29.686Z,6.6
2018-09-04T01:39:42.120Z,6.6
2018-09-04T01:39:54.525Z,6.6
2018-09-04T01:40:06.996Z,6.6
2018-09-04T01:40:19.411Z,6.6
2018-09-04T01:40:31.839Z,6.48
2018-09-04T01:40:44.281Z,6.48
2018-09-04T01:40:56.717Z,6.48
2018-09-04T01:41:09.154Z,6.48
2018-09-04T01:41:21.637Z,6.48
2018-09-04T01:41:34.075Z,6.48
2018-09-04T01:41:46.497Z,6.48
2018-09-04T01:41:58.977Z,6.48
2018-09-04T01:42:11.424Z,6.48
2018-09-04T01:42:23.881Z,6.48
2018-09-04T01:42:36.299Z,6.48
2018-09-04T01:42:48.721Z,6.48
2018-09-04T01:43:01.145Z,6.48
2018-09-04T01:43:13.559Z,6.48
2018-09-04T01:43:25.975Z,6.48
2018-09-04T01:43:38.375Z,6.48
2018-09-04T01:43:50.789Z,6.48
2018-09-04T01:44:03.283Z,6.48
2018-09-04T01:44:15.756Z,6.48
2018-09-04T01:44:28.200Z,6.48
2018-09-04T01:44:40.619Z,6.48
2018-09-04T01:44:53.043Z,6.48
2018-09-04T01:45:05.461Z,6.48
2018-09-04T01:45:17.878Z,6.48
2018-09-04T01:45:30.298Z,6.48
2018-09-04T01:45:42.704Z,6.48
2018-09-04T01:45:55.107Z,6.48
2018-09-04T01:46:07.521Z,6.48
2018-09-04T01:46:19.923Z,6.48
2018-09-04T01:46:32.320Z,6.48
2018-09-04T01:46:44.724Z,6.48
2018-09-04T01:46:57.131Z,6.48
2018-09-04T01:47:09.542Z,6.48
2018-09-04T01:47:21.964Z,6.48
2018-09-04T01:47:34.393Z,6.48
2018-09-04T01:47:46.852Z,6.48
2018-09-04T01:47:59.262Z,6.48
2018-09-04T01:48:11.947Z,6.48
2018-09-04T01:48:24.365Z,6.48
2018-09-04T01:48:36.770Z,6.48
2018-09-04T01:48:49.177Z,6.48
2018-09-04T01:49:01.600Z,6.48
2018-09-04T01:49:14.419Z,6.48
2018-09-04T01:49:26.891Z,6.48
2018-09-04T01:49:39.296Z,6.48
2018-09-04T01:49:51.716Z,6.48
2018-09-04T01:50:04.115Z,6.48
2018-09-04T01:50:16.539Z,6.48
2018-09-04T01:50:28.950Z,5.7
2018-09-04T01:50:41.421Z,5.7
2018-09-04T01:50:53.822Z,5.7
2018-09-04T01:51:06.215Z,5.7
2018-09-04T01:51:18.616Z,5.7
2018-09-04T01:51:31.023Z,5.7
2018-09-04T01:51:43.430Z,5.7
2018-09-04T01:51:55.860Z,5.7
2018-09-04T01:52:08.277Z,5.7
2018-09-04T01:52:20.705Z,5.7
2018-09-04T01:52:33.113Z,5.7
2018-09-04T01:52:45.546Z,5.7
2018-09-04T01:52:57.947Z,5.7
2018-09-04T01:53:10.409Z,5.7
2018-09-04T01:53:22.821Z,5.7
2018-09-04T01:53:35.226Z,5.7
2018-09-04T01:53:47.634Z,5.7
2018-09-04T01:54:00.040Z,5.7
2018-09-04T01:54:12.468Z,5.7
2018-09-04T01:54:24.924Z,5.7
2018-09-04T01:54:37.330Z,5.7
2018-09-04T01:54:49.751Z,5.7
2018-09-04T01:55:02.269Z,5.7
2018-09-04T01:55:14.677Z,5.7
2018-09-04T01:55:27.083Z,5.7
2018-09-04T01:55:39.484Z,5.7
2018-09-04T01:55:51.907Z,5.7
2018-09-04T01:56:04.314Z,5.7
2018-09-04T01:56:16.772Z,5.7
2018-09-04T01:56:29.255Z,5.7
2018-09-04T01:56:41.723Z,5.7
2018-09-04T01:56:54.153Z,5.7
2018-09-04T01:57:06.573Z,5.7
2018-09-04T01:57:18.988Z,5.7
2018-09-04T01:57:31.385Z,5.7
2018-09-04T01:57:43.938Z,5.7
2018-09-04T01:57:56.351Z,5.7
2018-09-04T01:58:08.760Z,5.7
2018-09-04T01:58:21.179Z,5.7
2018-09-04T01:58:33.578Z,5.7
2018-09-04T01:58:46.029Z,5.7
2018-09-04T01:58:58.503Z,5.7
2018-09-04T01:59:10.907Z,5.7
2018-09-04T01:59:23.321Z,5.7
2018-09-04T01:59:35.724Z,5.7
2018-09-04T01:59:48.130Z,5.7
2018-09-04T02:00:00.541Z,5.7
2018-09-04T02:00:12.938Z,5.7
2018-09-04T02:00:25.355Z,5.7
2018-09-04T02:00:37.758Z,6.56
2018-09-04T02:00:50.198Z,6.56
2018-09-04T02:01:02.747Z,6.56
2018-09-04T02:01:15.169Z,6.56
2018-09-04T02:01:27.593Z,6.56
2018-09-04T02:01:40.026Z,6.56
2018-09-04T02:01:52.450Z,6.56
2018-09-04T02:02:04.849Z,6.56
2018-09-04T02:02:17.280Z,6.56
2018-09-04T02:02:29.758Z,6.56
2018-09-04T02:02:42.196Z,6.56
2018-09-04T02:02:54.687Z,6.56
2018-09-04T02:03:07.188Z,6.56
2018-09-04T02:03:19.593Z,6.56
2018-09-04T02:03:32.001Z,6.56
2018-09-04T02:03:44.398Z,6.56
2018-09-04T02:03:56.824Z,6.56
2018-09-04T02:04:09.343Z,6.56
2018-09-04T02:04:21.748Z,6.56
2018-09-04T02:04:34.357Z,6.56
2018-09-04T02:04:46.900Z,6.56
2018-09-04T02:04:59.494Z,6.56
2018-09-04T02:05:11.903Z,6.56
2018-09-04T02:05:24.302Z,6.56
2018-09-04T02:05:36.700Z,6.56
2018-09-04T02:05:49.104Z,6.56
2018-09-04T02:06:01.538Z,6.56
2018-09-04T02:06:13.935Z,6.56
2018-09-04T02:06:26.322Z,6.56
2018-09-04T02:06:38.778Z,6.56
2018-09-04T02:06:51.188Z,6.56
2018-09-04T02:07:03.580Z,6.56
2018-09-04T02:07:15.993Z,6.56
2018-09-04T02:07:28.417Z,6.56
2018-09-04T02:07:40.820Z,6.56
2018-09-04T02:07:53.236Z,6.56
2018-09-04T02:08:05.712Z,6.56
2018-09-04T02:08:18.136Z,6.56
2018-09-04T02:08:30.541Z,6.56
2018-09-04T02:08:42.952Z,6.56
2018-09-04T02:08:55.430Z,6.56
2018-09-04T02:09:07.866Z,6.56
2018-09-04T02:09:20.288Z,6.56
2018-09-04T02:09:32.735Z,6.56
2018-09-04T02:09:45.155Z,6.56
2018-09-04T02:09:57.567Z,6.56
2018-09-04T02:10:09.974Z,6.56
2018-09-04T02:10:22.379Z,6.56
2018-09-04T02:10:34.796Z,6.82
2018-09-04T02:10:47.181Z,6.82
2018-09-04T02:10:59.580Z,6.82
2018-09-04T02:11:11.971Z,6.82
2018-09-04T02:11:24.369Z,6.82
2018-09-04T02:11:36.862Z,6.82
2018-09-04T02:11:49.424Z,6.82
2018-09-04T02:12:02.090Z,6.82
2018-09-04T02:12:14.501Z,6.82
2018-09-04T02:12:26.895Z,6.82
2018-09-04T02:12:39.314Z,6.82
2018-09-04T02:12:51.720Z,6.82
2018-09-04T02:13:04.155Z,6.82
2018-09-04T02:13:16.544Z,6.82
2018-09-04T02:13:28.934Z,6.82
2018-09-04T02:13:41.318Z,6.82
2018-09-04T02:13:53.722Z,6.82
2018-09-04T02:14:06.113Z,6.82
2018-09-04T02:14:18.527Z,6.82
2018-09-04T02:14:30.920Z,6.82
2018-09-04T02:14:43.328Z,6.82
2018-09-04T02:14:55.737Z,6.82
2018-09-04T02:15:08.163Z,6.82
2018-09-04T02:15:20.571Z,6.82
2018-09-04T02:15:32.970Z,6.82
2018-09-04T02:15:45.397Z,6.82
2018-09-04T02:15:57.802Z,6.82
2018-09-04T02:16:10.223Z,6.82
2018-09-04T02:16:22.624Z,6.82
2018-09-04T02:16:35.023Z,6.82
2018-09-04T02:16:47.418Z,6.82
2018-09-04T02:16:59.836Z,6.82
2018-09-04T02:17:12.248Z,6.82
2018-09-04T02:17:24.645Z,6.82
2018-09-04T02:17:37.066Z,6.82
2018-09-04T02:17:49.544Z,6.82
2018-09-04T02:18:02.003Z,6.82
2018-09-04T02:18:14.423Z,6.82
2018-09-04T02:18:26.827Z,6.82
2018-09-04T02:18:39.238Z,6.82
2018-09-04T02:18:51.672Z,6.82
2018-09-04T02:19:04.107Z,6.82
2018-09-04T02:19:16.521Z,6.82
2018-09-04T02:19:29.067Z,6.82
2018-09-04T02:19:41.482Z,6.82
2018-09-04T02:19:53.924Z,6.82
2018-09-04T02:20:06.524Z,6.82
2018-09-04T02:20:18.952Z,6.82
2018-09-04T02:20:31.360Z,7.37
2018-09-04T02:20:43.924Z,7.37
2018-09-04T02:20:56.331Z,7.37
2018-09-04T02:21:08.831Z,7.37
2018-09-04T02:21:21.219Z,7.37
2018-09-04T02:21:33.600Z,7.37
2018-09-04T02:21:46.010Z,7.37
2018-09-04T02:21:58.415Z,7.37
2018-09-04T02:22:10.870Z,7.37
2018-09-04T02:22:23.260Z,7.37
2018-09-04T02:22:35.660Z,7.37
2018-09-04T02:22:48.062Z,7.37
2018-09-04T02:23:00.625Z,7.37
2018-09-04T02:23:13.044Z,7.37
2018-09-04T02:23:25.431Z,7.37
2018-09-04T02:23:37.907Z,7.37
2018-09-04T02:23:50.305Z,7.37
2018-09-04T02:24:02.699Z,7.37
2018-09-04T02:24:15.113Z,7.37
2018-09-04T02:24:27.527Z,7.37
2018-09-04T02:24:39.925Z,7.37
2018-09-04T02:24:52.660Z,7.37
2018-09-04T02:25:05.073Z,7.37
2018-09-04T02:25:17.476Z,7.37
2018-09-04T02:25:29.874Z,7.37
2018-09-04T02:25:42.268Z,7.37
2018-09-04T02:25:54.681Z,7.37
2018-09-04T02:26:07.134Z,7.37
2018-09-04T02:26:19.549Z,7.37
2018-09-04T02:26:31.945Z,7.37
2018-09-04T02:26:44.358Z,7.37
2018-09-04T02:26:56.763Z,7.37
2018-09-04T02:27:09.165Z,7.37
2018-09-04T02:27:21.582Z,7.37
2018-09-04T02:27:33.982Z,7.37
2018-09-04T02:27:46.449Z,7.37
2018-09-04T02:27:58.853Z,7.37
2018-09-04T02:28:11.252Z,7.37
2018-09-04T02:28:23.653Z,7.37
2018-09-04T02:28:36.055Z,7.37
2018-09-04T02:28:48.482Z,7.37
2018-09-04T02:29:00.885Z,7.37
2018-09-04T02:29:13.307Z,7.37
2018-09-04T02:29:25.731Z,7.37
2018-09-04T02:29:38.124Z,7.37
2018-09-04T02:29:50.533Z,7.37
2018-09-04T02:30:02.948Z,7.37
2018-09-04T02:30:15.410Z,7.37
2018-09-04T02:30:27.871Z,7.52
2018-09-04T02:30:40.277Z,7.52
2018-09-04T02:30:52.708Z,7.52
2018-09-04T02:31:05.127Z,7.52
2018-09-04T02:31:17.681Z,7.52
2018-09-04T02:31:30.096Z,7.52
2018-09-04T02:31:42.509Z,7.52
2018-09-04T02:31:54.914Z,7.52
2018-09-04T02:32:07.346Z,7.52
2018-09-04T02:32:19.753Z,7.52
2018-09-04T02:32:32.226Z,7.52
2018-09-04T02:32:44.656Z,7.52
2018-09-04T02:32:57.315Z,7.52
2018-09-04T02:33:10.676Z,7.52
2018-09-04T02:33:23.542Z,7.52
2018-09-04T02:33:36.023Z,7.52
2018-09-04T02:33:48.474Z,7.52
2018-09-04T02:34:00.904Z,7.52
2018-09-04T02:34:13.321Z,7.52
2018-09-04T02:34:25.740Z,7.52
2018-09-04T02:34:38.147Z,7.52
2018-09-04T02:34:50.573Z,7.52
2018-09-04T02:35:03.417Z,7.52
2018-09-04T02:35:15.852Z,7.52
2018-09-04T02:35:28.268Z,7.52
2018-09-04T02:35:40.678Z,7.52
2018-09-04T02:35:53.118Z,7.52
2018-09-04T02:36:05.549Z,7.52
2018-09-04T02:36:18.029Z,7.52
2018-09-04T02:36:30.444Z,7.52
2018-09-04T02:36:42.875Z,7.52
2018-09-04T02:36:55.304Z,7.52
2018-09-04T02:37:07.730Z,7.52
2018-09-04T02:37:20.135Z,7.52
2018-09-04T02:37:32.579Z,7.52
2018-09-04T02:37:45.037Z,7.52
2018-09-04T02:37:57.485Z,7.52
2018-09-04T02:38:10.015Z,7.52
2018-09-04T02:38:22.422Z,7.52
2018-09-04T02:38:34.833Z,7.52
2018-09-04T02:38:47.263Z,7.52
2018-09-04T02:38:59.736Z,7.52
2018-09-04T02:39:12.160Z,7.52
2018-09-04T02:39:24.579Z,7.52
2018-09-04T02:39:36.990Z,7.52
2018-09-04T02:39:49.436Z,7.52
2018-09-04T02:40:01.863Z,7.52
2018-09-04T02:40:14.262Z,7.52
2018-09-04T02:40:26.735Z,7.52
2018-09-04T02:40:39.136Z,6.72
2018-09-04T02:40:51.549Z,6.72
2018-09-04T02:41:03.986Z,6.72
2018-09-04T02:41:16.445Z,6.72
2018-09-04T02:41:28.891Z,6.72
2018-09-04T02:41:41.309Z,6.72
2018-09-04T02:41:53.713Z,6.72
2018-09-04T02:42:06.197Z,6.72
2018-09-04T02:42:18.593Z,6.72
2018-09-04T02:42:31.056Z,6.72
2018-09-04T02:42:43.464Z,6.72
2018-09-04T02:42:55.865Z,6.72
2018-09-04T02:43:08.306Z,6.72
2018-09-04T02:43:20.714Z,6.72
2018-09-04T02:43:33.129Z,6.72
2018-09-04T02:43:45.536Z,6.72
2018-09-04T02:43:57.955Z,6.72
2018-09-04T02:44:10.374Z,6.72
2018-09-04T02:44:22.799Z,6.72
2018-09-04T02:44:35.211Z,6.72
2018-09-04T02:44:47.605Z,6.72
2018-09-04T02:45:00.013Z,6.72
2018-09-04T02:45:12.422Z,6.72
2018-09-04T02:45:24.855Z,6.72
2018-09-04T02:45:37.316Z,6.72
2018-09-04T02:45:49.713Z,6.72
2018-09-04T02:46:02.120Z,6.72
2018-09-04T02:46:14.522Z,6.72
2018-09-04T02:46:26.950Z,6.72
2018-09-04T02:46:39.372Z,6.72